Terminal Aerodrome Forecast
Issued by NWS

Home | Current Version | Previous Version | Graphics & Text | Print | Product List | Glossary On
Versions: 1 2 3 4 5 6 7 8 9 10 11 12 13
655
FTUS43 KGRB 182323
TAFAUW
TAF
KAUW 182323Z 1900/1924 32012G20KT P6SM OVC022
      TEMPO 1900/1902 OVC018
     FM190900 30010G16KT P6SM SCT035
     FM192000 26009KT P6SM BKN090=

USA.gov is the U.S. government's official web portal to all federal, state and local government web resources and services.